Sven Berger

Scout - VfB Stuttgart
9 Dec 2028
Saturday
Process

Personality

Adaptability (2) Ambition (13) Controversy (20) Loyalty (15) Pressure (6) Professionalism (8) Sportsmanship (7) Temperament (17)

Profile

Coaching Style Democratic
License National A
Determination 9
Man Management 13
Motivating 12
Discipline 12
Job Satisfaction
100%
Fatigue
0%
Role Scout
Wage 64.1K p/w
Contract 14.03.2030

Performance

Behaviour Good
Training Effectiveness
51%
Player Development
55%
Injury Prevention
75%
Tactical Implementation
35%

Recent Events

Assessed a player now
Attended a recruitment meeting now
Recommended a transfer target now
Assessed a player now
Observed a match 7d ago
Observed a match 7d ago
Assessed a player 7d ago
Assessed a player 7d ago

Currently Monitoring

229
Player Club Status Ability Confidence Watched Last Observed Latest Vote
Isaque Obolon Active 139 / 141 40% 2 08.12.2028 -
Jacob Peter Hödl Sturm Graz Active 134 / 124 40% 6 08.12.2028 -
Mihajlo Cvetković Club Brugge Active 132 / 134 40% 3 08.12.2028 -
Babis Kostoulas Oxford United Active 152 / 158 40% 6 07.12.2028 -
Rio Ngumoha Plymouth Argyle Active 146 / 146 40% 4 07.12.2028 -
Eduardo Fernandes Benfica Active 129 / 129 40% 3 05.12.2028 -
Geovany Quenda Watford Active 152 / 166 40% 2 05.12.2028 -
Mikey Moore Stockport County Active 148 / 150 40% 5 05.12.2028 -
Álvaro Montoro Botafogo Active 142 / 148 40% 10 04.12.2028 -
Buba Sangaré Elche Active 140 / 148 40% 1 04.12.2028 -
Siyabonga Mabena Bidvest Wits Active 135 / 129 40% 2 03.12.2028 -
Sebastian Rodriguez Houston Dynamo Active 125 / 129 40% 4 03.12.2028 -
Estêvão Portsmouth Active 154 / 166 40% 4 03.12.2028 -
Ayyoub Bouaddi Stoke City Active 153 / 161 40% 3 02.12.2028 -
Trey Nyoni Rotherham United Active 144 / 146 40% 8 01.12.2028 -
Jake Evans Crewe Alexandra Active 115 / 127 40% 1 01.12.2028 -
Ben Broggio Mansfield Town Active 110 / 126 40% 4 29.11.2028 -
Ibrahim Fullah Charlton Athletic Active 124 / 133 40% 5 29.11.2028 -
Harry Gray Harrogate Town Active 132 / 134 40% 2 29.11.2028 -
Luca Williams-Barnett Walsall Active 133 / 129 40% 3 28.11.2028 -
Amin Nabizada Exeter City Active 119 / 128 40% 2 28.11.2028 -
Ryan McAidoo Oldham Athletic Active 126 / 140 40% 5 27.11.2028 -
Harrison Armstrong Ipswich Town Active 137 / 141 40% 2 27.11.2028 -
Jake Richards Barrow AFC Active 119 / 127 40% 1 27.11.2028 -
Lisandro Piñero Banfield Active 130 / 132 40% 2 26.11.2028 -
Mateus Mané Burnley Active 153 / 148 40% 11 24.11.2028 -
Aarón Ochoa Málaga Active 120 / 131 40% 3 24.11.2028 -
Sean Steur Rotherham United Active 127 / 136 40% 2 24.11.2028 -
Andrija Bulatović Chamois Niortais Active 138 / 137 40% 3 20.11.2028 -
Hugo Camberos Dorados Active 130 / 148 40% 4 18.11.2028 -
Dieguinho Grêmio Active 120 / 128 40% 1 18.11.2028 -
Peyton Miller New England Revolution Active 120 / 132 40% 1 15.11.2028 -
Miguel Figueiredo Benfica Active 131 / 139 40% 2 14.11.2028 -
Philipp Maybach Red Bull Salzburg Active 119 / 127 40% 3 14.11.2028 -
Matías Arias Vélez Active 118 / 125 40% 1 14.11.2028 -
Celías Ingenthron Platense Active 114 / 115 40% 2 13.11.2028 -
Mateo Aguiar Tigre Active 109 / 126 40% 2 10.11.2028 -
Robinho Junior Flamengo Active 122 / 133 40% 1 08.11.2028 -
Tyler Fletcher Rotherham United Active 120 / 121 40% 5 06.11.2028 -
Adrian Lahdo Empoli Active 129 / 135 40% 1 06.11.2028 -
Leart Kabashi Luzern Active 115 / 131 40% 2 03.11.2028 -
Andrija Maksimović VfL Wolfsburg Active 136 / 139 40% 4 02.11.2028 -
Lucca São Paulo Active 126 / 115 40% 1 02.11.2028 -
Ryan Kavuma-McQueen Accrington Stanley Active 119 / 134 40% 1 02.11.2028 -
Alex Verón Vélez Active 110 / 113 40% 3 01.11.2028 -
Konstantinos Karetsas Borussia Dortmund Active 135 / 142 40% 1 01.11.2028 -
Jorge Salinas Racing Santander Active 136 / 137 40% 3 30.10.2028 -
Yan Diomandé Oviedo Active 161 / 171 40% 6 29.10.2028 -
Lennart Karl TSG Hoffenheim Active 150 / 163 40% 1 27.10.2028 -
André Miranda Porto Active 125 / 120 40% 2 26.10.2028 -
Tahiel Peralta Racing Club Active 116 / 113 40% 1 26.10.2028 -
Henrique Carmo Sochi Active 145 / 133 40% 4 24.10.2028 -
Ibrahim Mbaye Queens Park Rangers Active 139 / 151 40% 2 16.10.2028 -
Gilberto Mora Guadalajara Active 136 / 155 40% 1 16.10.2028 -
Mustafa Hekimoğlu Antalyaspor Active 136 / 128 40% 3 12.10.2028 -
Arthur De Lima Central Coast Mariners Active 126 / 126 40% 2 12.10.2028 -
Honest Ahanor Atalanta Active 136 / 141 40% 2 11.10.2028 -
Marc Bernal Sevilla Active 155 / 163 40% 6 11.10.2028 -
Luis Otávio Orlando City Active 105 / 107 40% 1 08.10.2028 -
Gabriel Sloane-Rodrigues Team Wellington Active 122 / 138 40% 1 06.10.2028 -
Kauã Moraes Flamengo Active 136 / 136 40% 1 30.08.2028 -
Lukas Klostermann Mainz 05 Report Ready 141 / 153 72% 1 28.08.2028 -
Abubacarr Sedi Kinteh Al-Ahli Active 132 / 142 40% 1 28.08.2028 -
Daniel Banjaqui Benfica Active 129 / 129 40% 5 21.08.2028 -
Maximilian Beier Borussia Dortmund Report Ready 164 / 149 72% 1 21.08.2028 -
Davinchi Getafe Active 123 / 133 40% 1 21.08.2028 -
Pharell Hensel VfL Wolfsburg Active 122 / 114 40% 1 21.08.2028 -
Jorthy Mokio ADO Den Haag Active 135 / 134 40% 2 07.08.2028 -
Haine Eames Brisbane Roar Active 120 / 138 40% 1 07.08.2028 -
Ryunosuke Sato Eibar Active 140 / 130 40% 3 30.07.2028 -
Gabriel Mec Feirense Active 131 / 141 40% 2 29.07.2028 -
Igor Tyjon Barrow AFC Active 126 / 136 40% 5 28.07.2028 -
Kerim Alajbegović Modena Active 140 / 150 40% 2 26.07.2028 -
Woo-Yeong Jeong Union Berlin Lost 149 / 145 72% 1 24.07.2028 -
Paulinho Borussia Dortmund Report Ready 150 / 144 72% 1 17.07.2028 -
Luca Meirelles Kudrivka Active 123 / 117 40% 3 15.07.2028 -
Giovanni Cantizano Fulham Active 120 / 130 40% 1 15.07.2028 -
Endrick Boca Juniors Active 164 / 172 40% 2 14.07.2028 -
Rafael Camacho Sporting CP Active 107 / 113 40% 1 14.07.2028 -
Rayan Hamburger SV Active 148 / 147 40% 3 10.07.2028 -
Oskar Pietuszewski Estrela da Amadora Active 136 / 142 40% 2 10.07.2028 -
Daniel Peretz Wolverhampton Active 145 / 142 40% 1 10.07.2028 -
Berke Özer LOSC Lille Active 139 / 138 40% 1 10.07.2028 -
Christos Mouzakitis Hull City Active 137 / 145 40% 3 08.07.2028 -
Jan Virgili Club Brugge Active 146 / 150 40% 6 06.07.2028 -
Héctor Fort Real Sociedad Active 140 / 149 40% 2 06.07.2028 -
Gabe Forsyth Colchester United Active 117 / 124 40% 3 06.07.2028 -
Alphadjo Cissé Lecce Active 129 / 146 40% 1 05.07.2028 -
Ethan Nwaneri Arsenal Active 151 / 163 40% 4 03.07.2028 -
Rémi Himbert AC Ajaccio Active 123 / 120 40% 2 03.07.2028 -
Anthony Patterson Wrexham Active 141 / 143 40% 1 03.07.2028 -
Moritz Nicolas Borussia Mönchengladbach Active 141 / 155 40% 1 03.07.2028 -
Matt Freese Shakhtar Negotiating 143 / 153 40% 1 03.07.2028 -
Saïd El Mala Köln Rejected 145 / 152 72% 5 02.07.2028 -
Shea Lacey Crystal Palace Active 134 / 142 40% 1 02.07.2028 -
Otto Stange Borussia Mönchengladbach Active 130 / 126 40% 1 29.06.2028 -
Jamal Iddrissou Pergolettese Active 109 / 116 40% 2 28.06.2028 -
Radek Vítek Middlesbrough Lost 147 / 145 40% 1 26.06.2028 -
Christos Mandas Lazio Lost 145 / 145 40% 1 26.06.2028 -
Kamil Grabara VfL Wolfsburg Lost 144 / 139 40% 1 26.06.2028 -
Gomolemo Kekana Maritzburg United Active 122 / 122 40% 1 25.06.2028 -
Suleman Sani Werder Bremen Active 135 / 140 40% 1 22.06.2028 -
Pau Cubarsí Real Sociedad Active 164 / 172 40% 3 19.06.2028 -
Kilian Nikiéma ADO Den Haag Active 136 / 133 40% 1 19.06.2028 -
Gregor Kobel Borussia Dortmund Active 170 / 161 40% 1 19.06.2028 -
Cezary Miszta Rio Ave Active 144 / 136 40% 1 19.06.2028 -
Romelle Donovan Brentford Active 136 / 129 40% 5 18.06.2028 -
Gabriel Martinelli Arsenal Active 172 / 173 40% 1 13.06.2028 -
Lucas Høgsberg RC Strasbourg Active 145 / 145 40% 6 12.06.2028 -
Mohamed Amoura VfL Wolfsburg Report Ready 153 / 144 72% 1 12.06.2028 -
João Simões Sporting CP Lost 145 / 144 40% 1 12.06.2028 -
Josh Nichols Oldham Athletic Active 122 / 133 40% 1 12.06.2028 -
Eli Junior Kroupi Bournemouth Active 142 / 155 40% 1 05.06.2028 -
Serge Gnabry Bayern Munich Report Ready 156 / 165 72% 1 04.06.2028 -
Maarten Vandevoordt RB Leipzig Active 148 / 157 40% 2 02.06.2028 -
Mark Travers Leicester City Active 150 / 148 40% 1 02.06.2028 -
Andriy Lunin Sevilla Active 160 / 160 40% 1 02.06.2028 -
Largie Ramazani Leeds United Active 144 / 142 40% 1 31.05.2028 -
Morgan Rogers Chelsea Active 167 / 159 40% 1 31.05.2028 -
Arthur Bayer Leverkusen Active 141 / 133 72% 1 04.01.2028 -
Caleb Yirenkyi Coventry City Active 145 / 146 40% 6 02.01.2028 -
Ayden Heaven Portsmouth Active 151 / 155 40% 1 02.01.2028 -
William Gomes Porto Active 150 / 155 40% 6 21.06.2027 -
Izan Merino Málaga Active 122 / 125 40% 3 21.06.2027 -
Ethan Williams Peterborough United Active 116 / 110 40% 2 07.06.2027 -
Oscar Schwartau Norwich City Active 118 / 129 40% 3 07.06.2027 -
Gonçalo Oliveira Benfica Active 114 / 114 40% 3 31.05.2027 -
Yussif Saidu Zaragoza Active 128 / 124 40% 5 31.05.2027 -
Leo Castledine Middlesbrough Active 131 / 125 40% 5 30.05.2027 -
Jeff Ekhator Juventus Active 134 / 140 40% 4 30.05.2027 -
Edmund Baidoo St. Gallen Active 126 / 135 40% 4 30.05.2027 -
Ibrahim Maza Bayer Leverkusen Active 144 / 151 40% 9 29.05.2027 -
Rafael Moreno Atletico Venezuela Active 101 / 121 40% 2 29.05.2027 -
Samuele di Benedetto Twente Active 110 / 112 40% 4 27.05.2027 -
Givairo Read Feyenoord Active 142 / 148 40% 4 27.05.2027 -
Alex Scott Bournemouth Active 149 / 157 40% 4 26.05.2027 -
Ousmane Diomande Nottingham Forest Active 151 / 149 40% 3 26.05.2027 -
Brooke Norton-Cuffy Hull City Active 138 / 134 40% 1 26.05.2027 -
Senny Mayulu Paris Saint-Germain Active 146 / 144 40% 4 25.05.2027 -
Sam Amo-Ameyaw RC Strasbourg Active 128 / 134 40% 2 24.05.2027 -
Gorka Gorosabel Real Sociedad Active 104 / 109 40% 2 24.05.2027 -
Othmane Maamma Watford Active 125 / 130 40% 3 22.05.2027 -
Max Johnston Derby County Active 128 / 135 40% 3 22.05.2027 -
Kees Smit AZ Active 140 / 148 40% 3 20.05.2027 -
Max Caputo Melbourne City Active 117 / 109 40% 2 16.05.2027 -
Ben Ahmed Kohili Paradou Active 95 / 93 40% 2 16.05.2027 -
Bence Dárdai VfL Wolfsburg Active 126 / 139 40% 1 16.05.2027 -
Jesús Vázquez Valencia Active 141 / 141 40% 4 15.05.2027 -
Javi Guerra Valencia Active 141 / 152 40% 1 15.05.2027 -
Ilaix Moriba Celta Active 154 / 156 40% 2 13.05.2027 -
Nnamdi Collins Eintracht Frankfurt Active 139 / 130 40% 1 13.05.2027 -
Omar El Hilali Espanyol Active 144 / 149 40% 1 13.05.2027 -
Jarrad Branthwaite Everton Active 158 / 160 40% 2 12.05.2027 -
Marc Pubill Atlético Madrid Active 151 / 145 40% 1 12.05.2027 -
Lewis Hall Newcastle United Active 150 / 157 40% 4 10.05.2027 -
Juanlu Bournemouth Active 147 / 147 40% 3 10.05.2027 -
Nico O'Reilly Manchester City Active 150 / 147 40% 3 09.05.2027 -
Sindre Walle Egeli Udinese Active 134 / 133 40% 2 06.05.2027 -
Olívio Tomé Benfica Active 112 / 121 40% 1 06.05.2027 -
Tino Livramento Newcastle United Active 152 / 158 40% 4 05.05.2027 -
Yehor Yarmoliuk Brentford Active 143 / 160 40% 5 05.05.2027 -
Jan Bürger Northampton Town Active 109 / 110 40% 2 04.05.2027 -
Castello Lukeba RB Leipzig Active 155 / 144 40% 1 04.05.2027 -
Ryan Gravenberch Liverpool Active 157 / 162 40% 6 03.05.2027 -
Lorenzo Amatucci Deportivo La Coruña Active 130 / 135 40% 2 03.05.2027 -
Álex Lizancos Burgos Active 126 / 123 40% 1 03.05.2027 -
Toby Collyer West Bromwich Albion Active 136 / 141 40% 1 30.04.2027 -
Nikolaus Wurmbrand Girona Active 124 / 136 40% 2 28.04.2027 -
Bosun Lawal Stoke City Active 130 / 129 40% 1 28.04.2027 -
Mohamadou Kanté Crawley Town Active 116 / 115 40% 3 27.04.2027 -
Victor Froholdt Porto Active 150 / 163 40% 1 22.04.2027 -
Miloš Kerkez Liverpool Active 157 / 156 40% 1 22.04.2027 -
Levi Colwill Chelsea Active 155 / 165 40% 1 20.04.2027 -
Adam Wharton Crystal Palace Active 147 / 149 40% 1 20.04.2027 -
Kike Salas Sevilla Active 148 / 146 40% 1 14.04.2027 -
Mathys Tel Tottenham Active 137 / 145 40% 1 12.04.2027 -
Kobbie Mainoo Manchester United Active 157 / 150 40% 6 11.04.2027 -
João Neves Paris Saint-Germain Active 171 / 167 40% 2 11.04.2027 -
Pablo Barrios Atlético Madrid Active 162 / 153 40% 1 11.04.2027 -
Rocco Vata Watford Active 127 / 116 40% 2 09.04.2027 -
Will Lankshear Middlesbrough Active 116 / 133 40% 1 09.04.2027 -
Emirhan Başyiğit Sivasspor Active 107 / 106 40% 1 09.04.2027 -
Ryan Oné Sheffield United Active 114 / 112 40% 1 05.04.2027 -
Pau Navarro Villarreal Active 137 / 137 40% 2 04.04.2027 -
Chemsdine Talbi Sunderland Active 141 / 152 40% 3 03.04.2027 -
Illaijh de Ruijter ADO Den Haag Active 109 / 116 40% 2 03.04.2027 -
Malick Fofana Sunderland Active 150 / 156 40% 1 25.03.2027 -
Joaquin Seys Club Brugge Active 129 / 129 40% 1 22.03.2027 -
David Mella Deportivo La Coruña Active 124 / 132 40% 1 10.03.2027 -
Antonio Nusa RB Leipzig Active 145 / 143 40% 1 04.03.2027 -
Antoni Milambo Brentford Active 135 / 148 40% 1 01.03.2027 -
Wouter Burger TSG Hoffenheim Active 149 / 135 40% 2 31.12.2026 -
Anthony Caci Mainz 05 Active 143 / 138 40% 2 12.11.2026 -
Aleix García Bayer Leverkusen Active 144 / 149 40% 2 11.11.2026 -
Alexis Mac Allister Liverpool Active 161 / 168 40% 3 11.11.2026 -
Rodri Barcelona Active 178 / 177 40% 4 03.11.2026 -
José Ángel Carmona Sevilla Active 146 / 151 40% 1 03.11.2026 -
Kim Min-Jae Bayern Munich Active 162 / 159 40% 3 01.11.2026 -
Felix Nmecha Borussia Dortmund Active 163 / 151 40% 3 31.10.2026 -
David Raum RB Leipzig Active 149 / 141 40% 3 31.10.2026 -
Gavi Barcelona Active 157 / 162 40% 2 29.10.2026 -
Óscar Mingueza Crystal Palace Active 155 / 154 40% 1 28.10.2026 -
Bernardo TSG Hoffenheim Active 147 / 152 40% 1 28.10.2026 -
Mats Wieffer Brighton Active 146 / 152 40% 1 28.10.2026 -
William Saliba Arsenal Active 170 / 184 40% 2 25.10.2026 -
Frenkie de Jong Barcelona Active 168 / 163 40% 1 25.10.2026 -
Julian Ryerson Borussia Dortmund Active 152 / 157 40% 1 24.10.2026 -
Alphonso Davies Bayern Munich Active 162 / 167 40% 4 20.10.2026 -
Amadou Onana Aston Villa Active 155 / 147 40% 1 14.10.2026 -
Dominik Szoboszlai Liverpool Active 171 / 158 40% 2 13.10.2026 -
Marc Guéhi Manchester City Active 169 / 168 40% 1 13.10.2026 -
Moisés Caicedo Chelsea Active 164 / 159 40% 1 03.10.2026 -
Nico Schlotterbeck Borussia Dortmund Active 160 / 156 40% 1 03.10.2026 -
Joško Gvardiol Manchester City Active 167 / 168 40% 2 01.10.2026 -
Rúben Dias Manchester City Active 164 / 170 40% 1 01.10.2026 -
Jeremie Frimpong Liverpool Active 159 / 164 40% 2 29.09.2026 -
Wesley Fofana Chelsea Active 157 / 159 40% 1 29.09.2026 -
Pedro Porro Tottenham Active 143 / 155 40% 1 29.09.2026 -
Noussair Mazraoui Manchester United Active 157 / 140 40% 1 26.09.2026 -
Sven Botman Newcastle United Active 155 / 150 40% 2 25.09.2026 -
Enzo Fernández Manchester City Active 170 / 165 40% 1 24.09.2026 -
Loïc Badé Bayer Leverkusen Active 147 / 140 40% 1 22.09.2026 -
Youri Tielemans Manchester United Active 156 / 150 40% 1 19.09.2026 -
Jurriën Timber Arsenal Active 157 / 163 40% 1 19.09.2026 -
Ibrahima Konaté Real Madrid Active 152 / 168 40% 1 17.09.2026 -
Denzel Dumfries Real Madrid Active 160 / 150 40% 1 14.09.2026 -
Alejandro Grimaldo Atlético Madrid Active 162 / 160 40% 2 13.09.2026 -
Gabriel Arsenal Active 174 / 161 40% 1 13.09.2026 -
Martin Terrier Bayer Leverkusen Active 138 / 131 72% 1 03.08.2026 Approve